createdAt,value
2022-12-12T00:00:32.037Z,76.37
2022-12-12T00:03:23.846Z,76.44
2022-12-12T00:05:56.961Z,76.49
2022-12-12T00:08:28.800Z,76.51
2022-12-12T00:11:00.657Z,76.63
2022-12-12T00:13:32.580Z,76.87
2022-12-12T00:16:05.424Z,77.02
2022-12-12T00:18:38.643Z,76.96
2022-12-12T00:21:16.120Z,76.82
2022-12-12T00:23:47.962Z,76.80
2022-12-12T00:26:21.162Z,76.75
2022-12-12T00:28:53.354Z,76.80
2022-12-12T00:31:25.297Z,76.85
2022-12-12T00:33:57.233Z,76.72
2022-12-12T00:36:30.845Z,76.74
2022-12-12T00:39:02.813Z,76.90
2022-12-12T00:41:34.601Z,76.91
2022-12-12T00:44:06.393Z,76.96
2022-12-12T00:46:38.299Z,76.87
2022-12-12T00:49:10.797Z,76.55
2022-12-12T00:51:42.640Z,76.60
2022-12-12T00:54:14.641Z,76.59
2022-12-12T00:56:46.710Z,76.70
2022-12-12T00:59:19.973Z,76.66
2022-12-12T01:01:51.735Z,76.59
2022-12-12T01:04:23.793Z,76.55
2022-12-12T01:06:55.491Z,76.62
2022-12-12T01:09:27.274Z,76.66
2022-12-12T01:11:59.022Z,76.62
2022-12-12T01:14:31.239Z,77.07
2022-12-12T01:17:02.976Z,77.28
2022-12-12T01:19:34.863Z,77.22
2022-12-12T01:22:06.546Z,77.34
2022-12-12T01:24:38.171Z,77.23
2022-12-12T01:27:10.322Z,77.32
2022-12-12T01:29:42.223Z,77.28
2022-12-12T01:32:14.164Z,77.12
2022-12-12T01:34:45.746Z,77.14
2022-12-12T01:37:17.381Z,77.17
2022-12-12T01:39:49.219Z,77.27
2022-12-12T01:42:21.658Z,77.29
2022-12-12T01:44:54.443Z,77.07
2022-12-12T01:47:27.251Z,76.78
2022-12-12T01:50:01.461Z,76.88
2022-12-12T01:52:35.992Z,77.07
2022-12-12T01:55:09.656Z,76.96
2022-12-12T01:57:44.805Z,77.00
2022-12-12T02:00:17.142Z,77.22
2022-12-12T02:02:49.868Z,77.40
2022-12-12T02:05:25.775Z,77.41
2022-12-12T02:07:58.822Z,77.28
2022-12-12T02:10:31.425Z,77.37
2022-12-12T02:13:04.796Z,77.36
2022-12-12T02:15:44.362Z,77.33
2022-12-12T02:18:20.369Z,77.51
2022-12-12T02:21:04.088Z,77.53
2022-12-12T02:24:01.950Z,77.58
2022-12-12T02:26:48.156Z,77.47
2022-12-12T02:29:39.505Z,77.34
2022-12-12T02:32:14.820Z,77.21
2022-12-12T02:34:51.397Z,77.12
2022-12-12T02:37:27.508Z,77.07
2022-12-12T02:40:05.688Z,77.37
2022-12-12T02:42:41.911Z,77.58
2022-12-12T02:45:16.125Z,77.62
2022-12-12T02:47:50.619Z,77.61
2022-12-12T02:50:24.523Z,77.75
2022-12-12T02:52:56.840Z,77.89
2022-12-12T02:55:32.587Z,77.98
2022-12-12T02:58:08.493Z,77.69
2022-12-12T03:00:43.931Z,77.84
2022-12-12T03:03:42.501Z,77.91
2022-12-12T03:06:41.230Z,77.83
2022-12-12T03:09:17.975Z,77.78
2022-12-12T03:11:57.631Z,77.66
2022-12-12T03:14:36.632Z,77.71
2022-12-12T03:17:12.830Z,77.87
2022-12-12T03:19:48.619Z,77.67
2022-12-12T03:22:26.520Z,77.43
2022-12-12T03:25:02.900Z,77.48
2022-12-12T03:27:39.522Z,77.34
2022-12-12T03:30:13.672Z,77.39
2022-12-12T03:32:48.667Z,77.44
2022-12-12T03:35:22.679Z,77.53
2022-12-12T03:37:56.861Z,77.43
2022-12-12T03:40:30.256Z,77.56
2022-12-12T03:43:04.382Z,77.59
2022-12-12T03:45:38.797Z,77.57
2022-12-12T03:48:15.099Z,77.66
2022-12-12T03:50:51.053Z,77.78
2022-12-12T03:53:26.501Z,77.78
2022-12-12T03:56:01.236Z,78.02
2022-12-12T03:58:35.386Z,78.20
2022-12-12T04:01:11.310Z,78.21
2022-12-12T04:03:51.120Z,78.29
2022-12-12T04:06:28.884Z,78.24
2022-12-12T04:09:20.151Z,78.53
2022-12-12T04:12:15.807Z,78.59
2022-12-12T04:14:58.522Z,78.53
2022-12-12T04:17:34.090Z,78.48
2022-12-12T04:20:28.178Z,78.39
2022-12-12T04:23:18.893Z,78.33
2022-12-12T04:26:13.174Z,78.37
2022-12-12T04:28:48.719Z,78.22
2022-12-12T04:31:22.958Z,78.12
2022-12-12T04:33:56.747Z,78.36
2022-12-12T04:36:29.279Z,78.28
2022-12-12T04:39:02.264Z,78.55
2022-12-12T04:41:36.359Z,78.71
2022-12-12T04:44:12.097Z,78.61
2022-12-12T04:46:44.600Z,78.80
2022-12-12T04:49:19.835Z,78.99
2022-12-12T04:51:54.682Z,79.20
2022-12-12T04:54:30.534Z,79.15
2022-12-12T04:57:03.420Z,79.03
2022-12-12T04:59:35.810Z,79.37
2022-12-12T05:02:11.459Z,79.38
2022-12-12T05:04:47.957Z,79.47
2022-12-12T05:07:23.192Z,79.34
2022-12-12T05:09:55.295Z,79.16
2022-12-12T05:12:27.177Z,79.24
2022-12-12T05:14:58.974Z,79.36
2022-12-12T05:17:35.215Z,79.42
2022-12-12T05:20:07.629Z,79.62
2022-12-12T05:22:39.389Z,79.86
2022-12-12T05:25:11.953Z,80.05
2022-12-12T05:27:44.178Z,80.18
2022-12-12T05:30:16.728Z,80.34
2022-12-12T05:32:48.575Z,80.30
2022-12-12T05:35:20.530Z,80.48
2022-12-12T05:37:52.530Z,80.76
2022-12-12T05:40:24.424Z,80.77
2022-12-12T05:42:57.118Z,80.78
2022-12-12T05:45:29.077Z,80.87
2022-12-12T05:48:00.921Z,81.01
2022-12-12T05:50:32.747Z,81.02
2022-12-12T05:53:04.311Z,80.83
2022-12-12T05:55:36.928Z,80.63
2022-12-12T05:58:08.838Z,80.62
2022-12-12T06:00:40.993Z,80.67
2022-12-12T06:03:13.065Z,80.84
2022-12-12T06:05:45.215Z,80.92
2022-12-12T06:08:20.946Z,81.04
2022-12-12T06:10:56.118Z,81.11
2022-12-12T06:13:27.851Z,81.17
2022-12-12T06:15:59.586Z,81.31
2022-12-12T06:18:32.064Z,81.39
2022-12-12T06:21:08.580Z,81.42
2022-12-12T06:23:41.328Z,81.30
2022-12-12T06:26:14.474Z,81.46
2022-12-12T06:28:47.046Z,81.44
2022-12-12T06:31:19.025Z,81.23
2022-12-12T06:33:50.558Z,81.28
2022-12-12T06:36:25.884Z,81.41
2022-12-12T06:38:59.482Z,81.33
2022-12-12T06:41:32.203Z,81.42
2022-12-12T06:44:04.742Z,81.61
2022-12-12T06:46:36.923Z,81.67
2022-12-12T06:49:10.247Z,81.74
2022-12-12T06:51:44.626Z,81.79
2022-12-12T06:54:18.702Z,81.82
2022-12-12T06:56:50.881Z,81.80
2022-12-12T06:59:22.792Z,82.02
2022-12-12T07:01:56.488Z,82.09
2022-12-12T07:04:28.570Z,82.06
2022-12-12T07:07:00.334Z,82.07
2022-12-12T07:09:32.053Z,81.95
2022-12-12T07:12:04.004Z,81.93
2022-12-12T07:14:35.929Z,82.01
2022-12-12T07:17:07.688Z,82.11
2022-12-12T07:19:39.826Z,82.11
2022-12-12T07:22:11.624Z,82.31
2022-12-12T07:24:43.379Z,82.25
2022-12-12T07:27:20.094Z,82.36
2022-12-12T07:29:54.108Z,82.51
2022-12-12T07:32:25.964Z,82.33
2022-12-12T07:34:58.212Z,82.39
2022-12-12T07:37:29.857Z,82.32
2022-12-12T07:40:02.123Z,82.18
2022-12-12T07:42:33.815Z,82.25
2022-12-12T07:45:05.615Z,82.38
2022-12-12T07:47:37.188Z,82.37
2022-12-12T07:50:10.059Z,82.13
2022-12-12T07:52:42.031Z,82.23
2022-12-12T07:55:14.188Z,82.35
2022-12-12T07:57:47.154Z,82.42
2022-12-12T08:00:20.443Z,82.48
2022-12-12T08:02:52.652Z,82.63
2022-12-12T08:05:24.829Z,82.78
2022-12-12T08:07:56.575Z,82.73
2022-12-12T08:10:28.128Z,82.88
2022-12-12T08:13:00.099Z,82.98
2022-12-12T08:15:32.249Z,82.84
2022-12-12T08:18:03.964Z,82.76
2022-12-12T08:20:35.535Z,82.76
2022-12-12T08:23:07.571Z,82.61
2022-12-12T08:25:39.465Z,82.58
2022-12-12T08:28:10.968Z,82.43
2022-12-12T08:30:42.845Z,82.39
2022-12-12T08:33:14.614Z,82.36
2022-12-12T08:35:46.689Z,82.40
2022-12-12T08:38:18.380Z,82.46
2022-12-12T08:40:50.394Z,82.48
2022-12-12T08:43:22.175Z,82.52
2022-12-12T08:45:53.776Z,82.46
2022-12-12T08:48:26.030Z,82.40
2022-12-12T08:50:58.735Z,82.44
2022-12-12T08:53:31.312Z,82.57
2022-12-12T08:56:02.930Z,82.54
2022-12-12T08:58:34.716Z,82.36
2022-12-12T09:01:10.930Z,82.24
2022-12-12T09:03:42.837Z,82.15
2022-12-12T09:06:14.722Z,82.03
2022-12-12T09:08:46.955Z,82.35
2022-12-12T09:11:19.328Z,82.19
2022-12-12T09:13:51.297Z,82.45
2022-12-12T09:16:26.134Z,82.26
2022-12-12T09:18:58.195Z,81.94
2022-12-12T09:21:30.642Z,81.96
2022-12-12T09:24:03.002Z,81.91
2022-12-12T09:26:34.916Z,81.74
2022-12-12T09:29:07.595Z,81.68
2022-12-12T09:31:39.220Z,81.72
2022-12-12T09:34:10.784Z,81.64
2022-12-12T09:36:42.771Z,81.51
2022-12-12T09:39:15.129Z,81.45
2022-12-12T09:41:46.992Z,81.59
2022-12-12T09:44:22.937Z,81.87
2022-12-12T09:46:57.929Z,81.58
2022-12-12T09:49:41.519Z,81.46
2022-12-12T09:52:17.497Z,81.55
2022-12-12T09:54:49.200Z,81.50
2022-12-12T09:57:26.813Z,81.45
2022-12-12T10:00:03.838Z,81.31
2022-12-12T10:02:46.345Z,81.42
2022-12-12T10:05:23.695Z,81.21
2022-12-12T10:07:59.502Z,80.99
2022-12-12T10:10:33.705Z,81.04
2022-12-12T10:13:06.660Z,81.02
2022-12-12T10:15:40.823Z,81.22
2022-12-12T10:18:16.685Z,81.14
2022-12-12T10:20:51.336Z,80.83
2022-12-12T10:23:26.663Z,80.83
2022-12-12T10:25:58.943Z,80.71
2022-12-12T10:28:33.251Z,80.83
2022-12-12T10:31:11.290Z,80.75
2022-12-12T10:33:49.704Z,80.91
2022-12-12T10:36:27.347Z,80.84
2022-12-12T10:39:08.096Z,80.74
2022-12-12T10:41:44.938Z,80.50
2022-12-12T10:44:21.723Z,80.51
2022-12-12T10:46:58.473Z,80.51
2022-12-12T10:49:30.895Z,80.53
2022-12-12T10:52:06.800Z,80.49
2022-12-12T10:54:43.862Z,80.46
2022-12-12T10:57:20.157Z,80.45
2022-12-12T10:59:53.869Z,80.31
2022-12-12T11:02:28.456Z,80.05
2022-12-12T11:05:09.020Z,79.82
2022-12-12T11:07:41.503Z,79.42
2022-12-12T11:10:26.846Z,79.03
2022-12-12T11:13:03.540Z,79.31
2022-12-12T11:15:47.128Z,78.92
2022-12-12T11:18:20.389Z,79.14
2022-12-12T11:20:53.762Z,78.83
2022-12-12T11:23:27.407Z,78.57
2022-12-12T11:26:00.744Z,78.73
2022-12-12T11:28:35.386Z,78.49
2022-12-12T11:31:09.032Z,78.75
2022-12-12T11:33:43.691Z,78.82
2022-12-12T11:36:17.231Z,78.63
2022-12-12T11:38:51.399Z,78.53
2022-12-12T11:41:23.763Z,78.24
2022-12-12T11:44:00.657Z,78.43
2022-12-12T11:46:33.970Z,78.69
2022-12-12T11:49:06.865Z,78.43
2022-12-12T11:51:40.504Z,78.59
2022-12-12T11:54:15.169Z,78.77
2022-12-12T11:56:52.737Z,78.96
2022-12-12T11:59:37.255Z,79.29
2022-12-12T12:02:22.591Z,78.95
2022-12-12T12:05:00.371Z,79.09
2022-12-12T12:07:45.491Z,79.01
2022-12-12T12:10:24.273Z,78.83
2022-12-12T12:13:01.863Z,78.75
2022-12-12T12:15:40.198Z,78.61
2022-12-12T12:18:31.303Z,78.52
2022-12-12T12:21:12.198Z,78.48
2022-12-12T12:23:50.674Z,78.44
2022-12-12T12:26:26.731Z,78.22
2022-12-12T12:29:10.632Z,78.18
2022-12-12T12:31:47.680Z,78.55
2022-12-12T12:34:23.791Z,78.50
2022-12-12T12:37:03.550Z,78.32
2022-12-12T12:39:42.768Z,78.57
2022-12-12T12:42:20.987Z,78.55
2022-12-12T12:44:56.813Z,78.63
2022-12-12T12:47:37.159Z,78.51
2022-12-12T12:50:18.026Z,78.45
2022-12-12T12:52:55.295Z,78.04
2022-12-12T12:55:32.360Z,78.12
2022-12-12T12:58:06.875Z,78.30
2022-12-12T13:00:39.435Z,78.23
2022-12-12T13:03:15.294Z,78.14
2022-12-12T13:05:50.141Z,77.97
2022-12-12T13:08:26.333Z,77.94
2022-12-12T13:11:01.713Z,77.89
2022-12-12T13:13:34.518Z,77.85
2022-12-12T13:16:09.839Z,76.34
2022-12-12T13:18:46.252Z,76.32
2022-12-12T13:21:22.776Z,78.24
2022-12-12T13:23:58.327Z,78.71
2022-12-12T13:26:35.494Z,78.88
2022-12-12T13:29:15.692Z,79.03
2022-12-12T13:32:07.115Z,79.30
2022-12-12T13:34:41.067Z,79.38
2022-12-12T13:37:14.648Z,79.78
2022-12-12T13:39:46.864Z,80.12
2022-12-12T13:42:19.160Z,80.23
2022-12-12T13:44:51.222Z,80.37
2022-12-12T13:47:47.658Z,80.75
2022-12-12T13:50:23.302Z,80.92
2022-12-12T13:53:23.855Z,81.15
2022-12-12T13:56:22.174Z,81.31
2022-12-12T13:58:54.091Z,81.43
2022-12-12T14:01:40.762Z,81.63
2022-12-12T14:04:26.057Z,81.43
2022-12-12T14:07:05.558Z,81.65
2022-12-12T14:09:50.601Z,81.66
2022-12-12T14:12:31.109Z,81.75
2022-12-12T14:15:06.199Z,81.83
2022-12-12T14:17:42.550Z,81.79
2022-12-12T14:20:25.641Z,81.88
2022-12-12T14:23:25.627Z,81.90
2022-12-12T14:25:58.858Z,82.02
2022-12-12T14:28:32.443Z,82.54
2022-12-12T14:31:09.801Z,82.50
2022-12-12T14:33:54.925Z,82.51
2022-12-12T14:36:37.204Z,82.50
2022-12-12T14:39:14.850Z,82.51
2022-12-12T14:41:47.520Z,82.53
2022-12-12T14:44:38.181Z,82.54
2022-12-12T14:47:11.774Z,82.60
2022-12-12T14:49:43.920Z,82.59
2022-12-12T14:52:18.564Z,82.62
2022-12-12T14:54:51.006Z,82.46
2022-12-12T14:57:24.689Z,82.39
2022-12-12T14:59:56.479Z,82.24
2022-12-12T15:02:31.348Z,82.12
2022-12-12T15:05:05.643Z,81.99
2022-12-12T15:07:38.847Z,82.07
2022-12-12T15:10:23.964Z,82.11
2022-12-12T15:12:56.612Z,81.93
2022-12-12T15:15:29.602Z,81.85
2022-12-12T15:18:02.458Z,81.94
2022-12-12T15:20:34.461Z,81.99
2022-12-12T15:23:07.676Z,81.75
2022-12-12T15:25:40.937Z,81.64
2022-12-12T15:28:17.362Z,81.79
2022-12-12T15:30:52.302Z,81.89
2022-12-12T15:33:25.278Z,81.73
2022-12-12T15:36:01.773Z,81.86
2022-12-12T15:38:35.952Z,81.93
2022-12-12T15:41:13.334Z,81.90
2022-12-12T15:43:45.639Z,81.58
2022-12-12T15:46:17.837Z,81.33
2022-12-12T15:48:50.708Z,81.30
2022-12-12T15:51:25.327Z,81.22
2022-12-12T15:53:58.290Z,81.17
2022-12-12T15:56:30.886Z,80.82
2022-12-12T15:59:17.079Z,80.68
2022-12-12T16:01:49.372Z,80.48
2022-12-12T16:04:26.108Z,80.45
2022-12-12T16:07:16.121Z,80.55
2022-12-12T16:10:00.560Z,80.58
2022-12-12T16:12:49.713Z,80.60
2022-12-12T16:15:22.988Z,80.62
2022-12-12T16:18:02.608Z,80.54
2022-12-12T16:20:35.540Z,80.39
2022-12-12T16:23:21.392Z,80.21
2022-12-12T16:25:53.324Z,80.15
2022-12-12T16:28:26.251Z,80.16
2022-12-12T16:30:59.061Z,79.96
2022-12-12T16:33:32.958Z,79.86
2022-12-12T16:36:06.435Z,79.89
2022-12-12T16:38:40.441Z,79.78
2022-12-12T16:41:14.672Z,79.88
2022-12-12T16:43:46.352Z,79.94
2022-12-12T16:46:19.448Z,79.85
2022-12-12T16:48:52.209Z,79.79
2022-12-12T16:51:28.133Z,79.91
2022-12-12T16:54:01.068Z,79.74
2022-12-12T16:56:33.102Z,79.78
2022-12-12T16:59:05.103Z,79.58
2022-12-12T17:01:39.052Z,79.45
2022-12-12T17:04:17.407Z,79.31
2022-12-12T17:06:49.230Z,79.63
2022-12-12T17:09:26.801Z,79.66
2022-12-12T17:12:01.991Z,79.55
2022-12-12T17:14:34.230Z,79.65
2022-12-12T17:17:07.021Z,79.78
2022-12-12T17:19:39.329Z,79.55
2022-12-12T17:22:11.472Z,79.26
2022-12-12T17:24:43.890Z,79.09
2022-12-12T17:27:15.796Z,79.16
2022-12-12T17:29:48.848Z,79.26
2022-12-12T17:32:24.397Z,79.28
2022-12-12T17:34:56.806Z,79.43
2022-12-12T17:37:30.784Z,79.37
2022-12-12T17:40:06.741Z,79.28
2022-12-12T17:42:43.733Z,79.26
2022-12-12T17:45:21.905Z,79.03
2022-12-12T17:47:54.575Z,79.00
2022-12-12T17:50:27.704Z,79.06
2022-12-12T17:53:00.539Z,79.13
2022-12-12T17:55:54.695Z,79.21
2022-12-12T17:58:33.646Z,79.43
2022-12-12T18:01:12.040Z,79.72
2022-12-12T18:03:45.444Z,79.82
2022-12-12T18:06:19.636Z,80.02
2022-12-12T18:08:52.866Z,80.21
2022-12-12T18:11:27.857Z,79.89
2022-12-12T18:14:02.708Z,79.82
2022-12-12T18:16:36.314Z,79.73
2022-12-12T18:19:08.385Z,79.77
2022-12-12T18:24:35.014Z,80.22
2022-12-12T18:27:07.681Z,80.24
2022-12-12T18:29:44.512Z,80.41
2022-12-12T18:32:19.054Z,80.51
2022-12-12T18:34:54.950Z,80.65
2022-12-12T18:37:28.608Z,80.39
2022-12-12T18:40:00.842Z,80.18
2022-12-12T18:42:36.290Z,80.04
2022-12-12T18:45:17.746Z,79.91
2022-12-12T18:47:50.839Z,79.77
2022-12-12T18:50:25.568Z,79.85
2022-12-12T18:53:04.460Z,79.61
2022-12-12T18:55:37.468Z,79.47
2022-12-12T18:58:14.932Z,79.42
2022-12-12T19:00:49.009Z,79.18
2022-12-12T19:03:22.696Z,78.93
2022-12-12T19:06:04.362Z,78.96
2022-12-12T19:08:39.164Z,78.98
2022-12-12T19:11:13.774Z,78.92
2022-12-12T19:13:50.205Z,78.96
2022-12-12T19:16:24.621Z,78.81
2022-12-12T19:19:02.372Z,79.10
2022-12-12T19:21:39.944Z,79.45
2022-12-12T19:24:14.708Z,79.40
2022-12-12T19:26:51.684Z,79.29
2022-12-12T19:29:28.923Z,79.35
2022-12-12T19:32:04.819Z,79.62
2022-12-12T19:34:40.195Z,79.67
2022-12-12T19:37:15.489Z,79.72
2022-12-12T19:39:53.294Z,79.72
2022-12-12T19:42:30.235Z,79.64
2022-12-12T19:45:05.613Z,79.78
2022-12-12T19:47:40.550Z,79.59
2022-12-12T19:50:16.894Z,79.47
2022-12-12T19:52:52.258Z,79.41
2022-12-12T19:55:31.242Z,79.61
2022-12-12T19:58:08.940Z,79.79
2022-12-12T20:00:42.574Z,79.98
2022-12-12T20:03:18.278Z,79.85
2022-12-12T20:06:03.411Z,79.71
2022-12-12T20:08:38.098Z,79.65
2022-12-12T20:11:12.900Z,79.35
2022-12-12T20:13:52.133Z,79.41
2022-12-12T20:16:29.135Z,79.61
2022-12-12T20:19:10.071Z,79.68
2022-12-12T20:22:02.437Z,79.31
2022-12-12T20:24:40.567Z,79.21
2022-12-12T20:27:16.964Z,79.57
2022-12-12T20:29:55.321Z,79.82
2022-12-12T20:32:31.500Z,79.91
2022-12-12T20:35:04.212Z,80.05
2022-12-12T20:37:37.406Z,79.87
2022-12-12T20:40:14.896Z,79.80
2022-12-12T20:42:57.169Z,79.80
2022-12-12T20:45:34.490Z,79.77
2022-12-12T20:48:08.096Z,79.60
2022-12-12T20:50:42.571Z,79.44
2022-12-12T20:53:18.822Z,79.36
2022-12-12T20:55:53.041Z,79.20
2022-12-12T20:58:27.069Z,79.12
2022-12-12T21:00:59.675Z,79.19
2022-12-12T21:03:35.285Z,79.16
2022-12-12T21:06:14.501Z,79.14
2022-12-12T21:08:48.696Z,79.00
2022-12-12T21:11:23.173Z,78.92
2022-12-12T21:13:55.619Z,79.01
2022-12-12T21:16:28.704Z,79.07
2022-12-12T21:19:02.694Z,79.15
2022-12-12T21:21:35.201Z,79.10
2022-12-12T21:24:08.933Z,79.18
2022-12-12T21:26:41.412Z,79.32
2022-12-12T21:29:13.763Z,79.33
2022-12-12T21:31:51.628Z,79.30
2022-12-12T21:34:25.219Z,79.43
2022-12-12T21:36:57.598Z,79.44
2022-12-12T21:39:30.721Z,79.46
2022-12-12T21:42:02.519Z,79.40
2022-12-12T21:44:34.569Z,79.26
2022-12-12T21:47:09.481Z,79.19
2022-12-12T21:49:41.472Z,79.21
2022-12-12T21:52:15.267Z,79.24
2022-12-12T21:54:47.116Z,79.47
2022-12-12T21:57:24.639Z,79.61
2022-12-12T21:59:57.230Z,79.49
2022-12-12T22:02:29.178Z,79.21
2022-12-12T22:05:02.609Z,79.11
2022-12-12T22:07:36.256Z,79.07
2022-12-12T22:10:11.100Z,79.04
2022-12-12T22:12:43.782Z,79.20
2022-12-12T22:15:29.314Z,79.29
2022-12-12T22:18:01.309Z,79.20
2022-12-12T22:20:35.981Z,79.23
2022-12-12T22:23:08.280Z,79.53
2022-12-12T22:25:40.191Z,79.78
2022-12-12T22:28:12.601Z,79.89
2022-12-12T22:30:45.368Z,79.76
2022-12-12T22:33:17.850Z,79.43
2022-12-12T22:35:49.849Z,79.23
2022-12-12T22:38:21.815Z,79.29
2022-12-12T22:40:56.849Z,79.25
2022-12-12T22:43:28.412Z,79.20
2022-12-12T22:46:04.030Z,79.18
2022-12-12T22:48:36.642Z,79.22
2022-12-12T22:51:15.247Z,79.24
2022-12-12T22:53:47.967Z,79.22
2022-12-12T22:56:19.641Z,79.26
2022-12-12T22:58:51.246Z,79.22
2022-12-12T23:01:24.559Z,79.42
2022-12-12T23:03:56.799Z,79.69
2022-12-12T23:06:29.700Z,79.52
2022-12-12T23:09:03.241Z,79.12
2022-12-12T23:11:35.389Z,78.94
2022-12-12T23:14:07.832Z,78.80
2022-12-12T23:16:39.558Z,79.04
2022-12-12T23:19:12.137Z,79.16
2022-12-12T23:21:44.338Z,79.17
2022-12-12T23:24:16.164Z,79.26
2022-12-12T23:26:47.859Z,79.41
2022-12-12T23:29:20.831Z,79.34
2022-12-12T23:31:53.354Z,79.42
2022-12-12T23:34:25.649Z,79.80
2022-12-12T23:36:58.526Z,79.92
2022-12-12T23:39:31.128Z,79.63
2022-12-12T23:42:03.351Z,79.27
2022-12-12T23:44:35.918Z,79.04
2022-12-12T23:47:07.807Z,78.87
2022-12-12T23:49:39.829Z,78.85
2022-12-12T23:52:12.221Z,78.81
2022-12-12T23:54:44.232Z,78.80
2022-12-12T23:57:15.986Z,78.79
2022-12-12T23:59:47.584Z,78.89
